Time;durP1;ratioP1;P1;durP2;ratioP2;P2;SDS_P1;SDS_P2;PMS_P1;PMS_P2;Temp;Humidity;BMP_temperature;BMP_pressure;BME280_temperature;BME280_humidity;BME280_pressure;Samples;Min_cycle;Max_cycle;Signal;HPM_P1;HPM_P2
2022/01/15 00:00:29;;;;;;;;;;;;;;;;;;;;;
2022/01/15 00:12:13;;;;;;;;;;;;;;;;;;;;;
2022/01/15 00:18:00;;;;;;;10.35;3.50;;;;;;;-2.79;100.00;102271.56;9799853;30;20076;-94
2022/01/15 00:23:40;;;;;;;7.90;2.95;;;;;;;-1.07;100.00;102449.84;9781970;30;20052;-92
2022/01/15 00:29:04;;;;;;;8.95;4.35;;;;;;;1.26;100.00;102724.28;9763635;30;20167;-95
2022/01/15 00:34:31;;;;;;;5.43;2.95;;;;;;;0.50;100.00;102742.22;9736106;30;20184;-91
2022/01/15 00:39:56;;;;;;;8.02;3.05;;;;;;;0.20;100.00;102803.59;9720116;30;20066;-91
2022/01/15 00:45:22;;;;;;;8.32;2.85;;;;;;;0.50;100.00;102641.94;9753112;30;20126;-92
2022/01/15 00:50:58;;;;;;;;;;;;;;;;;;;;;
2022/01/15 00:56:44;;;;;;;;;;;;;;;;;;;;;
2022/01/15 01:28:08;;;;;;;8.18;2.10;;;;;;;-2.32;100.00;102296.19;9857471;30;20063;-91
2022/01/15 01:33:04;;;;;;;8.43;3.10;;;;;;;-1.31;100.00;102374.56;9857914;30;20091;-94
2022/01/15 01:38:45;;;;;;;;;;;;;;;;;;;;;
2022/01/15 01:44:02;;;;;;;;;;;;;;;;;;;;;
2022/01/15 01:49:17;;;;;;;7.22;2.85;;;;;;;-0.72;100.00;102544.00;9842363;30;20032;-91
2022/01/15 01:55:01;;;;;;;10.32;3.08;;;;;;;-1.03;100.00;102408.88;9833996;30;20036;-94
2022/01/15 02:00:30;;;;;;;6.72;2.60;;;;;;;0.11;100.00;102609.44;9830143;30;20047;-95
2022/01/15 02:12:23;;;;;;;5.70;1.75;;;;;;;-0.90;100.00;102467.25;9871925;30;20550;-91
2022/01/15 02:18:11;;;;;;;5.03;1.90;;;;;;;0.19;100.00;102604.19;9828482;30;20105;-96
2022/01/15 02:23:57;;;;;;;;;;;;;;;;;;;;;
2022/01/15 02:36:14;;;;;;;6.53;2.10;;;;;;;-0.58;100.00;102352.50;9878549;30;20039;-95
2022/01/15 02:41:45;;;;;;;8.15;2.95;;;;;;;2.30;100.00;103069.22;9841669;30;20055;-95
2022/01/15 02:52:49;;;;;;;7.53;2.45;;;;;;;0.30;100.00;102556.25;9859312;30;20085;-95
2022/01/15 02:58:37;;;;;;;;;;;;;;;;;;;;;
2022/01/15 03:04:14;;;;;;;;;;;;;;;;;;;;;
2022/01/15 03:09:42;;;;;;;;;;;;;;;;;;;;;
2022/01/15 03:15:07;;;;;;;11.45;2.95;;;;;;;0.38;100.00;102632.25;9834771;30;20071;-91
2022/01/15 03:20:56;;;;;;;12.02;4.00;;;;;;;-1.93;100.00;102285.56;9836268;30;20055;-92
2022/01/15 03:26:23;;;;;;;16.90;4.78;;;;;;;0.05;100.00;102771.66;9822015;30;20078;-91
2022/01/15 03:32:10;;;;;;;;;;;;;;;;;;;;;
2022/01/15 03:38:01;;;;;;;17.80;5.72;;;;;;;1.07;100.00;102774.00;9633539;30;20067;-94
2022/01/15 03:43:18;;;;;;;15.75;4.85;;;;;;;-1.65;100.00;102385.69;9630552;30;20058;-94
2022/01/15 03:49:13;;;;;;;15.63;4.93;;;;;;;0.57;100.00;102767.75;9689764;30;20092;-91
2022/01/15 03:54:20;;;;;;;22.20;6.10;;;;;;;-0.62;100.00;102444.78;9815753;30;20052;-95
2022/01/15 03:59:41;;;;;;;;;;;;;;;;;;;;;
2022/01/15 04:05:18;;;;;;;10.32;4.10;;;;;;;-1.84;100.00;102390.03;9748098;30;20106;-96
2022/01/15 04:10:59;;;;;;;;;;;;;;;;;;;;;
2022/01/15 04:16:30;;;;;;;16.50;5.38;;;;;;;0.03;100.00;102568.69;9745957;30;20068;-90
2022/01/15 04:22:01;;;;;;;;;;;;;;;;;;;;;
2022/01/15 04:27:23;;;;;;;;;;;;;;;;;;;;;
2022/01/15 04:32:41;;;;;;;24.95;6.03;;;;;;;-0.30;100.00;102362.41;9824028;30;20048;-96
2022/01/15 04:38:26;;;;;;;15.25;6.00;;;;;;;-0.85;100.00;102467.66;9823142;30;20039;-91
2022/01/15 04:44:04;;;;;;;;;;;;;;;;;;;;;
2022/01/15 04:49:49;;;;;;;23.13;6.20;;;;;;;-0.09;100.00;102510.28;9819930;30;20114;-91
2022/01/15 05:00:38;;;;;;;19.48;5.43;;;;;;;-3.23;100.00;102041.84;9836121;30;20105;-91
2022/01/15 05:06:04;;;;;;;16.08;5.40;;;;;;;4.13;100.00;103316.44;9805084;30;20044;-91
2022/01/15 05:11:30;;;;;;;;;;;;;;;;;;;;;
2022/01/15 05:17:26;;;;;;;16.58;4.32;;;;;;;1.99;100.00;102835.78;9817877;30;20044;-93
2022/01/15 05:28:35;;;;;;;16.20;5.18;;;;;;;1.42;100.00;102776.91;9811252;30;20060;-92
2022/01/15 05:34:28;;;;;;;15.43;4.93;;;;;;;-1.50;100.00;102224.94;9808950;30;20548;-96
2022/01/15 05:40:02;;;;;;;16.27;4.78;;;;;;;0.06;100.00;102432.16;9795254;30;20050;-95
2022/01/15 05:45:45;;;;;;;12.18;4.72;;;;;;;2.13;100.00;102821.69;9812282;30;20036;-96
2022/01/15 05:51:29;;;;;;;;;;;;;;;;;;;;;
2022/01/15 05:57:07;;;;;;;11.48;3.63;;;;;;;-1.02;100.00;102274.56;9821130;30;20042;-91
2022/01/15 06:02:55;;;;;;;;;;;;;;;;;;;;;
2022/01/15 06:08:55;;;;;;;;;;;;;;;;;;;;;
2022/01/15 06:15:01;;;;;;;;;;;;;;;;;;;;;
2022/01/15 06:20:32;;;;;;;;;;;;;;;;;;;;;
2022/01/15 06:26:29;;;;;;;12.48;4.30;;;;;;;0.97;100.00;102574.19;9876202;30;20051;-91
2022/01/15 06:31:34;;;;;;;24.60;5.50;;;;;;;1.05;100.00;102586.97;9846430;30;20510;-91
2022/01/15 06:37:24;;;;;;;16.35;4.80;;;;;;;-1.39;100.00;102185.28;9841546;30;20051;-91
2022/01/15 06:43:03;;;;;;;21.58;6.15;;;;;;;-2.82;100.00;101899.03;9834909;30;20623;-91
2022/01/15 06:48:40;;;;;;;21.45;6.30;;;;;;;1.49;100.00;102817.91;9830608;30;20047;-92
2022/01/15 06:54:18;;;;;;;22.90;6.50;;;;;;;-1.11;100.00;102319.53;9843851;30;20089;-91
2022/01/15 07:00:17;;;;;;;20.08;7.47;;;;;;;-2.65;100.00;101976.47;9825181;30;20046;-90
2022/01/15 07:06:18;;;;;;;;;;;;;;;;;;;;;
2022/01/15 07:18:21;;;;;;;22.55;6.35;;;;;;;-2.01;100.00;102179.28;9730349;30;20038;-95
2022/01/15 07:24:16;;;;;;;15.88;5.57;;;;;;;1.07;100.00;102668.22;9738112;30;20062;-91
2022/01/15 07:29:39;;;;;;;;;;;;;;;;;;;;;
2022/01/15 07:35:44;;;;;;;16.60;5.35;;;;;;;4.02;100.00;103022.28;9807064;30;20043;-90
2022/01/15 07:41:22;;;;;;;;;;;;;;;;;;;;;
2022/01/15 07:46:30;;;;;;;11.70;4.65;;;;;;;-1.57;100.00;102269.75;9864378;29;20135;-91
2022/01/15 07:51:41;;;;;;;15.43;5.38;;;;;;;-0.20;100.00;102565.41;9859911;30;20046;-94
2022/01/15 07:56:54;;;;;;;;;;;;;;;;;;;;;
2022/01/15 08:01:55;;;;;;;10.43;4.75;;;;;;;-1.00;100.00;102406.88;9860695;30;20401;-93
2022/01/15 08:07:20;;;;;;;11.35;5.63;;;;;;;-0.35;100.00;102445.91;9859149;30;20047;-88
2022/01/15 08:12:51;;;;;;;;;;;;;;;;;;;;;
2022/01/15 08:17:52;;;;;;;11.23;4.95;;;;;;;0.17;100.00;102438.25;9859964;30;20106;-95
2022/01/15 08:23:18;;;;;;;13.05;5.95;;;;;;;3.89;100.00;102957.28;9864050;30;20059;-95
2022/01/15 08:28:44;;;;;;;8.45;3.60;;;;;;;4.09;100.00;103044.31;9846444;30;20139;-95
2022/01/15 08:34:34;;;;;;;9.35;3.92;;;;;;;4.29;100.00;103001.34;9844341;30;20070;-95
2022/01/15 08:39:49;;;;;;;11.43;3.50;;;;;;;4.33;100.00;103265.38;9836347;30;20047;-95
2022/01/15 08:51:29;;;;;;;6.93;2.70;;;;;;;-1.16;100.00;102283.09;9847467;30;20036;-95
2022/01/15 08:56:41;;;;;;;10.10;3.75;;;;;;;2.96;100.00;102812.56;9807039;30;20441;-89
2022/01/15 09:01:44;;;;;;;9.00;2.90;;;;;;;0.34;100.00;102431.19;9849759;30;20044;-87
2022/01/15 09:12:44;;;;;;;12.43;3.67;;;;;;;-0.54;100.00;102251.97;9871621;30;20052;-88
2022/01/15 09:17:45;;;;;;;6.80;3.13;;;;;;;-1.44;100.00;101994.78;9855269;30;20050;-93
2022/01/15 09:22:45;;;;;;;7.13;2.88;;;;;;;1.57;100.00;102651.56;9840181;30;20139;-88
2022/01/15 09:33:06;;;;;;;8.95;3.67;;;;;;;-0.64;100.00;102243.03;9807542;30;20044;-93
2022/01/15 09:38:07;;;;;;;12.07;4.35;;;;;;;2.49;100.00;102628.72;9825160;30;20124;-93
2022/01/15 09:43:11;;;;;;;14.50;5.40;;;;;;;-0.85;100.00;102291.91;9846306;30;20040;-93
2022/01/15 09:48:11;;;;;;;11.70;5.28;;;;;;;-0.12;100.00;102277.75;9826340;30;20498;-87
2022/01/15 09:53:16;;;;;;;13.10;5.05;;;;;;;3.50;100.00;102945.91;9825166;30;20133;-87
2022/01/15 09:58:17;;;;;;;11.40;5.90;;;;;;;-0.75;100.00;102089.91;9827399;30;20043;-88
2022/01/15 10:03:18;;;;;;;12.85;7.05;;;;;;;0.38;100.00;102274.63;9824384;30;20505;-93
2022/01/15 10:08:20;;;;;;;13.48;6.03;;;;;;;-0.68;100.00;102237.09;9825375;30;20101;-93
2022/01/15 10:13:25;;;;;;;16.85;7.35;;;;;;;2.77;100.00;102748.25;9825528;30;20047;-88
2022/01/15 10:18:30;;;;;;;11.65;6.30;;;;;;;-0.32;100.00;102107.34;9828077;30;20051;-94
2022/01/15 10:23:30;;;;;;;12.88;6.65;;;;;;;2.34;100.00;102536.03;9824773;30;20055;-88
2022/01/15 10:28:55;;;;;;;10.93;5.53;;;;;;;1.11;100.00;102276.31;9851551;30;20063;-94
2022/01/15 10:33:57;;;;;;;12.43;4.80;;;;;;;2.60;100.00;102698.31;9844900;30;20050;-93
2022/01/15 10:39:14;;;;;;;8.13;4.07;;;;;;;2.67;100.00;102693.09;9832959;30;20051;-91
2022/01/15 10:44:35;;;;;;;7.43;3.42;;;;;;;-0.52;100.00;102111.16;9832427;30;20460;-93
2022/01/15 10:49:37;;;;;;;5.65;2.33;;;;;;;1.38;100.00;102324.16;9832713;30;20045;-92
2022/01/15 10:55:12;;;;;;;6.13;3.05;;;;;;;5.08;100.00;102898.31;9834244;30;20502;-92
2022/01/15 11:00:24;;;;;;;6.50;4.22;;;;;;;-1.53;100.00;101795.81;9853099;30;20040;-88
2022/01/15 11:05:38;;;;;;;9.40;7.28;;;;;;;2.36;100.00;102742.47;9825277;30;20043;-88
2022/01/15 11:10:39;;;;;;;15.98;11.38;;;;;;;2.78;100.00;102720.91;9834311;30;20035;-94
2022/01/15 11:15:41;;;;;;;15.98;11.15;;;;;;;0.52;100.00;102287.66;9822137;30;20071;-94
2022/01/15 11:20:45;;;;;;;19.50;13.10;;;;;;;4.80;100.00;103071.38;9879026;30;20055;-93
2022/01/15 11:25:48;;;;;;;21.02;13.75;;;;;;;0.45;100.00;102310.06;9851460;30;20522;-88
2022/01/15 11:30:54;;;;;;;26.17;16.42;;;;;;;2.31;100.00;102644.19;9812298;30;20052;-88
2022/01/15 11:35:55;;;;;;;35.15;21.40;;;;;;;4.98;100.00;103052.22;9848035;30;20039;-93
2022/01/15 11:40:59;;;;;;;32.15;20.45;;;;;;;1.97;100.00;102414.03;9845173;30;20031;-93
2022/01/15 11:46:06;;;;;;;32.67;20.42;;;;;;;2.31;100.00;102617.88;9827084;30;20053;-87
2022/01/15 11:51:17;;;;;;;35.47;20.38;;;;;;;4.93;100.00;102884.47;9861088;30;20039;-93
2022/01/15 11:56:19;;;;;;;34.47;21.02;;;;;;;2.66;100.00;102620.69;9838745;30;20044;-87
2022/01/15 12:01:43;;;;;;;42.30;24.48;;;;;;;2.75;100.00;102521.81;9836898;30;20040;-94
2022/01/15 12:07:16;;;;;;;43.30;23.95;;;;;;;0.86;100.00;102186.63;9846793;30;20382;-87
2022/01/15 12:12:17;;;;;;;49.60;26.90;;;;;;;4.80;100.00;102819.47;9870592;30;20078;-88
2022/01/15 12:17:41;;;;;;;41.42;24.30;;;;;;;3.10;100.00;102607.00;9838679;30;20082;-89
2022/01/15 12:22:43;;;;;;;38.95;21.88;;;;;;;-1.10;100.00;102017.66;9843514;30;20135;-93
2022/01/15 12:28:07;;;;;;;34.65;19.35;;;;;;;0.53;100.00;102373.34;9842992;30;20082;-88
2022/01/15 12:33:11;;;;;;;32.60;19.52;;;;;;;-1.25;100.00;102033.53;9838875;30;20040;-86
2022/01/15 12:38:25;;;;;;;28.95;18.83;;;;;;;1.75;100.00;102415.38;9817134;30;20040;-88
2022/01/15 12:43:29;;;;;;;30.33;19.38;;;;;;;0.98;100.00;102352.66;9823185;30;20111;-89
2022/01/15 12:48:31;;;;;;;34.60;20.30;;;;;;;-1.02;100.00;101821.31;9820763;30;20050;-88
2022/01/15 12:53:34;;;;;;;35.88;22.58;;;;;;;-0.56;100.00;101960.97;9807828;30;20040;-93
2022/01/15 12:58:34;;;;;;;38.60;23.38;;;;;;;0.17;100.00;102186.38;9841784;30;20096;-95
2022/01/15 13:03:39;;;;;;;36.88;20.70;;;;;;;0.60;100.00;102273.34;9828654;30;20050;-88
2022/01/15 13:08:53;;;;;;;33.95;19.92;;;;;;;-0.68;100.00;102036.09;9828405;30;20502;-96
2022/01/15 13:14:14;;;;;;;39.08;22.02;;;;;;;-0.14;100.00;102009.06;9831505;30;20071;-89
2022/01/15 13:19:17;;;;;;;35.33;21.67;;;;;;;0.99;100.00;102214.19;9813064;30;20391;-89
2022/01/15 13:24:30;;;;;;;;;;;;;;;;;;;;;
2022/01/15 13:30:00;;;;;;;33.45;19.90;;;;;;;2.71;100.00;102602.03;9838714;30;20071;-94
2022/01/15 13:35:24;;;;;;;;;;;;;;;;;;;;;
2022/01/15 13:40:50;;;;;;;;;;;;;;;;;;;;;
2022/01/15 13:46:51;;;;;;;39.42;24.52;;;;;;;-3.86;100.00;101345.13;9845825;30;20408;-89
2022/01/15 13:57:17;;;;;;;39.13;24.20;;;;;;;3.36;100.00;102645.94;9843088;30;20043;-93
2022/01/15 14:02:28;;;;;;;38.08;24.30;;;;;;;-2.83;100.00;101666.41;9842133;30;20047;-94
2022/01/15 14:07:42;;;;;;;35.10;22.35;;;;;;;0.04;100.00;102130.88;9843341;30;20038;-94
2022/01/15 14:12:52;;;;;;;34.45;21.42;;;;;;;0.91;100.00;102108.38;9848149;30;20039;-89
2022/01/15 14:18:08;;;;;;;33.47;21.10;;;;;;;-3.08;100.00;101625.66;9862852;29;20052;-88
2022/01/15 14:23:17;;;;;;;32.33;20.70;;;;;;;1.13;100.00;102342.94;9835823;30;20066;-95
2022/01/15 14:28:51;;;;;;;;;;;;;;;;;;;;;
2022/01/15 14:34:51;;;;;;;;;;;;;;;;;;;;;
2022/01/15 14:40:17;;;;;;;30.92;19.45;;;;;;;-0.39;100.00;102029.63;9887978;29;20130;-95
2022/01/15 14:45:20;;;;;;;24.05;15.98;;;;;;;2.38;100.00;102531.13;9819941;30;20032;-87
2022/01/15 14:50:26;;;;;;;25.45;14.00;;;;;;;-0.39;100.00;101924.97;9850064;30;20134;-89
2022/01/15 14:55:47;;;;;;;24.42;14.95;;;;;;;0.79;100.00;102246.06;9840882;30;20048;-89
2022/01/15 15:01:20;;;;;;;24.20;15.20;;;;;;;0.05;100.00;102094.69;9842612;30;20036;-95
2022/01/15 15:06:33;;;;;;;23.50;14.75;;;;;;;-0.39;100.00;101991.75;9857470;30;20069;-94
2022/01/15 15:12:12;;;;;;;25.20;15.88;;;;;;;-1.99;100.00;101738.25;9864851;30;20560;-94
2022/01/15 15:17:22;;;;;;;;;;;;;;;;;;;;;
2022/01/15 15:22:43;;;;;;;33.63;19.35;;;;;;;-4.16;100.00;101365.91;9846519;30;20051;-88
2022/01/15 15:27:56;;;;;;;32.13;18.33;;;;;;;-2.06;100.00;101797.38;9846639;30;20074;-89
2022/01/15 15:33:08;;;;;;;30.50;17.67;;;;;;;-0.89;100.00;102130.97;9851520;30;20051;-89
2022/01/15 15:38:29;;;;;;;29.92;18.20;;;;;;;-0.62;100.00;102081.44;9861933;29;20048;-94
2022/01/15 15:43:40;;;;;;;;;;;;;;;;;;;;;
2022/01/15 15:49:08;;;;;;;;;;;;;;;;;;;;;
2022/01/15 15:54:17;;;;;;;30.10;17.23;;;;;;;-0.70;100.00;101970.50;9843857;30;20035;-94
2022/01/15 15:59:40;;;;;;;;;;;;;;;;;;;;;
2022/01/15 16:05:26;;;;;;;38.90;21.60;;;;;;;-2.48;100.00;101648.66;9848756;30;20092;-95
2022/01/15 16:10:31;;;;;;;41.27;23.10;;;;;;;-0.49;100.00;102021.59;9872356;30;20183;-88
2022/01/15 16:15:36;;;;;;;45.22;24.52;;;;;;;2.07;100.00;102504.41;9837342;30;20140;-89
2022/01/15 16:20:47;;;;;;;46.50;23.95;;;;;;;-3.49;100.00;101627.72;9831695;30;20063;-94
2022/01/15 16:25:50;;;;;;;45.47;23.90;;;;;;;0.23;100.00;102114.50;9829840;30;20075;-94
2022/01/15 16:30:53;;;;;;;48.75;26.27;;;;;;;0.30;100.00;102345.81;9826754;30;20043;-88
2022/01/15 16:35:56;;;;;;;46.70;25.65;;;;;;;-0.57;100.00;102057.53;9812089;30;20082;-87
2022/01/15 16:40:57;;;;;;;52.72;26.45;;;;;;;-4.28;100.00;101453.97;9850841;30;20058;-93
2022/01/15 16:45:58;;;;;;;53.53;27.33;;;;;;;-0.83;100.00;102043.84;9846597;30;20098;-93
2022/01/15 16:51:08;;;;;;;58.13;31.23;;;;;;;0.97;100.00;102340.97;9859413;29;20189;-88
2022/01/15 16:56:11;;;;;;;58.08;29.08;;;;;;;-3.27;100.00;101682.25;9812354;30;20040;-88
2022/01/15 17:01:15;;;;;;;63.22;30.65;;;;;;;0.94;100.00;102221.94;9834711;30;20076;-88
2022/01/15 17:06:18;;;;;;;66.22;31.80;;;;;;;-0.27;100.00;102129.41;9873563;30;20058;-92
2022/01/15 17:11:20;;;;;;;72.18;32.97;;;;;;;0.77;100.00;102352.97;9879222;30;20042;-94
2022/01/15 17:16:30;;;;;;;70.57;34.87;;;;;;;-3.42;100.00;101557.16;9857493;30;20172;-89
2022/01/15 17:21:51;;;;;;;68.30;31.73;;;;;;;-3.46;100.00;101607.75;9846714;30;20052;-94
2022/01/15 17:26:59;;;;;;;62.25;30.42;;;;;;;-0.85;100.00;101945.81;9858796;30;20036;-87
2022/01/15 17:32:02;;;;;;;53.87;26.20;;;;;;;-2.59;100.00;101833.03;9846120;30;20046;-93
2022/01/15 17:37:06;;;;;;;56.20;27.63;;;;;;;-0.87;100.00;101942.41;9855157;30;20044;-88
2022/01/15 17:42:07;;;;;;;58.60;27.00;;;;;;;-1.61;100.00;101825.44;9843765;30;20066;-87
2022/01/15 17:47:08;;;;;;;63.53;28.60;;;;;;;-0.69;100.00;102010.88;9885255;30;20497;-87
2022/01/15 17:52:08;;;;;;;66.47;30.23;;;;;;;1.67;100.00;102326.56;9911732;30;20039;-93
2022/01/15 17:57:09;;;;;;;68.72;29.60;;;;;;;0.10;100.00;102033.63;9877917;30;20043;-92
2022/01/15 18:02:10;;;;;;;70.93;29.55;;;;;;;0.43;100.00;102321.06;9840906;30;20040;-86
2022/01/15 18:07:10;;;;;;;78.05;30.80;;;;;;;2.40;100.00;102477.47;9836798;30;20032;-81
2022/01/15 18:12:24;;;;;;;;;;;;;;;;;;;;;
2022/01/15 18:17:45;;;;;;;82.28;31.25;;;;;;;-2.14;100.00;101781.09;9850701;30;20070;-94
2022/01/15 18:23:23;;;;;;;75.20;30.42;;;;;;;-2.04;100.00;101764.88;9792010;30;20065;-89
2022/01/15 18:28:58;;;;;;;81.43;30.23;;;;;;;-0.92;100.00;101877.16;9751994;30;20056;-94
2022/01/15 18:34:11;;;;;;;;;;;;;;;;;;;;;
2022/01/15 18:39:23;;;;;;;72.20;29.75;;;;;;;-1.28;100.00;101806.84;9812394;30;20040;-89
2022/01/15 18:45:17;;;;;;;88.07;31.85;;;;;;;-1.92;100.00;101650.31;9826390;30;20082;-89
2022/01/15 18:50:23;;;;;;;94.57;35.80;;;;;;;0.06;100.00;102031.38;9820175;30;20048;-93
2022/01/15 18:55:28;;;;;;;94.00;34.23;;;;;;;-3.88;100.00;101552.41;9824946;30;20078;-88
2022/01/15 19:00:49;;;;;;;101.47;34.25;;;;;;;-1.74;100.00;101916.72;9829185;30;20044;-87
2022/01/15 19:05:50;;;;;;;92.28;34.85;;;;;;;-0.62;100.00;102166.16;9842123;30;20027;-89
2022/01/15 19:10:50;;;;;;;102.75;36.42;;;;;;;-0.16;100.00;102146.44;9821080;30;20085;-87
2022/01/15 19:15:51;;;;;;;110.35;37.92;;;;;;;-2.79;100.00;101710.94;9839475;30;20060;-90
2022/01/15 19:20:52;;;;;;;93.93;33.95;;;;;;;-1.16;100.00;101838.06;9850343;30;20055;-91
2022/01/15 19:25:52;;;;;;;88.33;31.93;;;;;;;-2.13;100.00;101587.69;9840829;30;20044;-88
2022/01/15 19:30:53;;;;;;;91.40;31.63;;;;;;;-1.01;100.00;101787.03;9826183;30;20114;-89
2022/01/15 19:35:53;;;;;;;88.55;32.00;;;;;;;-0.22;100.00;101969.25;9835669;30;20029;-86
2022/01/15 19:40:54;;;;;;;84.43;29.38;;;;;;;-0.28;100.00;101992.38;9839924;30;20063;-88
2022/01/15 19:45:56;;;;;;;83.20;31.55;;;;;;;-0.94;100.00;101877.31;9843932;30;20035;-92
2022/01/15 19:50:56;;;;;;;109.20;31.98;;;;;;;-0.95;100.00;101940.50;9835754;30;20035;-85
2022/01/15 19:55:57;;;;;;;96.30;33.40;;;;;;;-1.54;100.00;101739.25;9857603;30;20488;-91
2022/01/15 20:00:58;;;;;;;86.82;33.45;;;;;;;-0.07;100.00;101969.53;9842775;30;20152;-88
2022/01/15 20:05:58;;;;;;;90.73;31.47;;;;;;;-1.45;100.00;101898.56;9841480;30;20093;-88
2022/01/15 20:10:59;;;;;;;83.97;31.05;;;;;;;-2.61;100.00;101568.13;9842719;30;20450;-90
2022/01/15 20:16:00;;;;;;;102.53;35.45;;;;;;;1.49;100.00;102203.63;9842889;30;20067;-91
2022/01/15 20:21:00;;;;;;;103.18;37.42;;;;;;;-3.20;100.00;101532.56;9855230;30;20052;-88
2022/01/15 20:26:04;;;;;;;104.93;35.97;;;;;;;-0.24;100.00;101966.69;9839920;30;20091;-88
2022/01/15 20:31:04;;;;;;;129.57;41.40;;;;;;;1.07;100.00;102198.97;9855671;30;20385;-90
2022/01/15 20:36:05;;;;;;;106.70;36.80;;;;;;;-1.67;100.00;101702.69;9856960;30;20081;-90
2022/01/15 20:41:05;;;;;;;112.93;37.20;;;;;;;-0.22;100.00;102072.94;9856314;30;20457;-88
2022/01/15 20:46:06;;;;;;;98.53;34.38;;;;;;;-0.15;100.00;102170.59;9840334;30;20326;-86
2022/01/15 20:51:06;;;;;;;92.80;33.33;;;;;;;-0.90;100.00;101835.44;9841243;30;20082;-90
2022/01/15 20:56:07;;;;;;;101.47;33.95;;;;;;;-2.99;100.00;101623.91;9855820;30;20075;-86
2022/01/15 21:01:07;;;;;;;78.60;28.13;;;;;;;-4.09;100.00;101199.47;9856347;30;20063;-88
2022/01/15 21:06:08;;;;;;;89.33;31.53;;;;;;;-0.35;100.00;101872.25;9841429;30;20039;-86
2022/01/15 21:11:08;;;;;;;87.27;31.47;;;;;;;-1.65;100.00;101770.03;9840728;30;20541;-90
2022/01/15 21:16:09;;;;;;;84.50;29.70;;;;;;;-2.98;100.00;101597.81;9856515;30;20134;-89
2022/01/15 21:21:09;;;;;;;96.05;34.45;;;;;;;2.65;100.00;102622.56;9840039;30;20466;-88
2022/01/15 21:26:10;;;;;;;94.63;31.88;;;;;;;0.31;100.00;102073.06;9870232;30;20119;-87
2022/01/15 21:31:11;;;;;;;84.80;31.10;;;;;;;0.11;100.00;102083.22;9855561;30;20034;-88
2022/01/15 21:36:11;;;;;;;81.83;32.87;;;;;;;-2.73;100.00;101558.56;9826436;30;20152;-92
2022/01/15 21:41:12;;;;;;;80.82;32.03;;;;;;;-2.08;100.00;101663.63;9848910;30;20106;-89
2022/01/15 21:46:15;;;;;;;74.37;28.70;;;;;;;-0.96;100.00;101798.22;9848055;30;20063;-91
2022/01/15 21:51:15;;;;;;;71.20;27.80;;;;;;;-0.50;100.00;101949.53;9863335;30;20047;-91
2022/01/15 21:56:16;;;;;;;63.17;26.90;;;;;;;-0.99;100.00;101986.88;9863218;30;20097;-88
2022/01/15 22:01:17;;;;;;;63.30;27.63;;;;;;;-0.54;100.00;101997.69;9876105;30;20043;-89
2022/01/15 22:06:17;;;;;;;63.57;27.53;;;;;;;0.62;100.00;102202.69;9827230;30;20044;-91
2022/01/15 22:11:18;;;;;;;55.65;25.17;;;;;;;-1.77;100.00;101728.91;9796937;30;20052;-91
2022/01/15 22:16:20;;;;;;;51.77;24.00;;;;;;;-2.36;100.00;101636.66;9780937;30;20479;-89
2022/01/15 22:21:20;;;;;;;57.07;23.07;;;;;;;-1.70;100.00;101861.44;9808682;30;20079;-89
2022/01/15 22:26:21;;;;;;;52.45;25.17;;;;;;;-2.67;100.00;101558.81;9808783;30;20051;-89
2022/01/15 22:31:22;;;;;;;50.13;23.38;;;;;;;0.06;100.00;102074.72;9782315;30;20075;-92
2022/01/15 22:36:22;;;;;;;49.47;22.37;;;;;;;-2.35;100.00;101726.53;9794156;30;20044;-88
2022/01/15 22:41:23;;;;;;;45.70;20.95;;;;;;;-1.99;100.00;101786.00;9779513;30;20051;-89
2022/01/15 22:46:26;;;;;;;45.87;22.87;;;;;;;-1.22;100.00;101903.53;9807642;30;20115;-89
2022/01/15 22:51:26;;;;;;;50.20;23.87;;;;;;;-3.20;100.00;101406.00;9824503;30;20048;-92
2022/01/15 22:56:27;;;;;;;57.40;25.93;;;;;;;1.08;100.00;102298.34;9796297;30;20466;-91
2022/01/15 23:01:28;;;;;;;52.60;22.63;;;;;;;-2.07;100.00;101786.72;9795528;30;20040;-89
2022/01/15 23:06:29;;;;;;;52.03;23.97;;;;;;;-1.16;100.00;101802.94;9792913;30;20059;-87
2022/01/15 23:11:35;;;;;;;52.90;23.55;;;;;;;-1.26;100.00;101851.66;9807550;30;20119;-88
2022/01/15 23:16:51;;;;;;;58.60;26.07;;;;;;;-3.15;100.00;101580.59;9794305;30;20055;-87
2022/01/15 23:21:52;;;;;;;60.63;25.27;;;;;;;-0.74;100.00;102055.63;9810469;30;20559;-89
2022/01/15 23:26:54;;;;;;;54.55;23.33;;;;;;;1.36;100.00;102394.03;9827403;30;20093;-93
2022/01/15 23:31:56;;;;;;;49.03;21.33;;;;;;;-2.84;100.00;101627.81;9845211;30;20387;-89
2022/01/15 23:36:56;;;;;;;58.27;23.67;;;;;;;-4.69;100.00;101379.88;9844202;30;20402;-88
2022/01/15 23:41:57;;;;;;;62.73;25.87;;;;;;;-2.11;100.00;101882.47;9857009;30;20031;-87
2022/01/15 23:46:58;;;;;;;63.00;25.40;;;;;;;-6.36;100.00;100967.84;9842710;30;20383;-89
2022/01/15 23:51:58;;;;;;;56.50;21.77;;;;;;;-3.81;100.00;101452.31;9859671;30;20067;-93
2022/01/15 23:56:59;;;;;;;58.13;23.83;;;;;;;-2.59;100.00;101724.34;9850542;30;20131;-88
